• Join FlightAware (Why Join?)
  • Login
  • US Flag 
04:51AM EDT


 

Airport Tracker/Info


-or-


 

Live Flight TrackerFlight Track Log ✈ GJS3706 ✈ 09-May-2013 ✈ KORD - KCVG

Flight Track Log - Related Links

Times and Time Zones

All times are in EDT time to prevent confusion due to time zone crossing. See the GJS3706 flight status page for this flight to view local times or setup timezone preferences in your user account.

Time Position Orientation Groundspeed Altitude Reporting Facility
EDT Latitude Longitude Course Direction KTS MPH feet Rate Location/Type
10:30AM 41.9333 -87.9000 159° South 178 205 2,700  Level Chicago TRACON
10:31AM 41.8833 -87.8667 154° Southeast 224 258 4,900 1,260 Climbing Chicago TRACON
10:32AM 41.8167 -87.8333 160° South 263 303 5,000 1,380 Climbing Chicago TRACON
10:33AM 41.6778 -87.5527 159° South  Level Estimated
10:33AM 41.7667 -87.7833 143° Southeast 262 302 7,600  Level Chicago TRACON
10:34AM 41.6017 -87.4647 153° Southeast  Level Estimated
10:34AM 41.6833 -87.7500 163° South 270 311 11,100  Level Chicago TRACON
10:35AM 41.5255 -87.3770 159° South  Level Estimated
10:35AM 41.5922 -87.6828 151° Southeast 297 342 14,800  Level Chicago Center
10:36AM 41.5125 -87.6272 152° Southeast 319 367 15,700 1,260 Climbing Chicago Center
10:37AM 41.4261 -87.5603 150° Southeast 352 405 17,500 1,980 Climbing Chicago Center
10:38AM 41.3333 -87.4883 150° Southeast 380 437 19,900 1,680 Climbing Chicago Center
10:39AM 41.2342 -87.4139 151° Southeast 401 461 21,000 480 Climbing Chicago Center
10:40AM 41.1061 -87.3181 151° Southeast 431 496 21,000  Level Chicago Center
10:42AM 40.9964 -87.2381 151° Southeast 447 514 21,000  Level Chicago Center
10:43AM 40.8925 -87.1594 150° Southeast 439 505 21,000  Level Chicago Center
10:44AM 40.7903 -87.0833 151° Southeast 427 491 21,000  Level Chicago Center
10:45AM 40.6881 -87.0075 151° Southeast 426 490 21,000  Level Chicago Center
10:46AM 40.5842 -86.9308 151° Southeast 428 493 21,000  Level Chicago Center
10:47AM 40.4817 -86.8547 151° Southeast 426 490 21,000  Level Chicago Center
10:48AM 40.3583 -86.7631 150° Southeast 426 490 21,000  Level Chicago Center
10:49AM 40.2556 -86.6889 151° Southeast 424 488 21,000 -300 Level Chicago Center
10:50AM 40.1531 -86.6142 151° Southeast 423 487 20,500 -780 Descending Chicago Center
10:50AM 40.0722 -86.5550 151° Southeast 417 480 19,700 -1,020 Descending Indianapolis Center
10:52AM 39.9733 -86.4828 151° Southeast 411 473 18,700 -960 Descending Indianapolis Center
10:53AM 39.8764 -86.4128 151° Southeast 403 464 17,800 -900 Descending Indianapolis Center
10:54AM 39.8000 -86.3167 136° Southeast 395 455 17,000 -960 Descending Indianapolis TRACON
10:55AM 39.7500 -86.1667 113° Southeast 400 460 15,900 -960 Descending Indianapolis TRACON
10:56AM 39.7000 -86.0333 116° Southeast 381 438 15,100 -780 Descending Indianapolis TRACON
10:57AM 39.6658 -85.9233 112° Southeast 379 436 14,400 -540 Descending Indianapolis Center
10:58AM 39.6144 -85.7731 114° Southeast 381 438 14,000 -300 Descending Indianapolis Center
10:59AM 39.5725 -85.6489 114° Southeast 377 434 13,800 -1,140 Descending Indianapolis Center
11:00AM 39.5344 -85.5342 113° Southeast 354 407 11,700 -1,380 Descending Indianapolis Center
11:01AM 39.4836 -85.4242 121° Southeast 355 409 11,000 -900 Descending Indianapolis Center
11:02AM 39.4544 -85.3228 110° East 307 353 9,900 -1,440 Descending Indianapolis Center
11:03AM 39.4378 -85.2214 102° East 292 336 8,100 -960 Descending Indianapolis Center
11:04AM 39.4153 -85.1022 104° East 286 329 8,000 -300 Descending Indianapolis Center
11:05AM 39.3969 -85.0022 103° East 287 330 7,500 -1,020 Descending Indianapolis Center
11:06AM 39.3722 -84.9078 109° East 281 323 6,000 -1,020 Descending Indianapolis Center
11:06AM 39.3500 -84.8500 116° Southeast 282 325 6,000 -600 Level Cincinnati TRACON
11:08AM 39.3000 -84.7667 128° Southeast 262 302 5,100 -960 Descending Cincinnati TRACON
11:09AM 39.2500 -84.7167 142° Southeast 235 270 3,900 -960 Descending Cincinnati TRACON
11:10AM 39.1833 -84.6667 150° Southeast 209 241 3,000 -840 Descending Cincinnati TRACON
11:11AM 39.1500 -84.6667 180° South 182 209 2,400 -780 Descending Cincinnati TRACON